Time;durP1;ratioP1;P1;durP2;ratioP2;P2;SDS_P1;SDS_P2;PMS_P1;PMS_P2;Temp;Humidity;BMP_temperature;BMP_pressure;BME280_temperature;BME280_humidity;BME280_pressure;Samples;Min_cycle;Max_cycle;Signal;HPM_P1;HPM_P2
2022/07/11 00:02:25;;;;;;;;;1.00;1.00;;;;;15.37;59.68;99709.59;6319810;20;2734048;-58
2022/07/11 00:04:53;;;;;;;;;1.00;1.00;;;;;15.18;60.30;99701.25;6306615;20;1800314;-58
2022/07/11 00:07:22;;;;;;;;;2.00;2.00;;;;;15.24;60.80;99700.75;6315567;20;2744076;-59
2022/07/11 00:09:49;;;;;;;;;1.00;1.00;;;;;15.09;61.07;99702.88;6289652;20;2721082;-59
2022/07/11 00:12:20;;;;;;;;;1.00;1.00;;;;;15.06;60.98;99712.09;6301167;20;1804654;-58
2022/07/11 00:14:48;;;;;;;;;1.00;1.00;;;;;15.31;59.84;99708.25;6319817;20;2720059;-58
2022/07/11 00:17:16;;;;;;;;;1.00;1.00;;;;;15.06;61.46;99703.97;6285736;20;2725298;-58
2022/07/11 00:19:45;;;;;;;;;2.00;2.00;;;;;15.03;61.53;99715.00;6287766;20;2739853;-58
2022/07/11 00:22:13;;;;;;;;;2.00;2.00;;;;;15.12;60.82;99714.28;6281827;20;2744093;-58
2022/07/11 00:24:41;;;;;;;;;3.00;2.00;;;;;15.11;60.98;99715.28;6287704;20;2737773;-58
2022/07/11 00:27:09;;;;;;;;;2.00;2.00;;;;;14.99;61.17;99718.94;6283502;20;2752334;-58
2022/07/11 00:29:37;;;;;;;;;1.00;1.00;;;;;14.74;62.51;99722.72;6303486;20;1803215;-58
2022/07/11 00:32:07;;;;;;;;;1.00;1.00;;;;;14.86;61.46;99721.75;6333898;20;1804023;-58
2022/07/11 00:34:35;;;;;;;;;1.00;1.00;;;;;14.89;62.06;99716.09;6317069;20;2729613;-58
2022/07/11 00:37:04;;;;;;;;;3.00;1.25;;;;;14.92;61.57;99723.13;6299279;20;1795229;-58
2022/07/11 00:39:32;;;;;;;;;1.50;1.50;;;;;15.01;61.02;99711.59;6318490;20;2739839;-58
2022/07/11 00:42:01;;;;;;;;;1.00;0.00;;;;;15.17;60.68;99724.75;6303916;20;1801516;-58
2022/07/11 00:44:28;;;;;;;;;2.00;2.00;;;;;14.94;61.36;99726.56;6318656;20;2744034;-58
2022/07/11 00:46:57;;;;;;;;;1.00;1.00;;;;;14.95;61.51;99724.72;6302149;20;1804510;-58
2022/07/11 00:49:25;;;;;;;;;2.50;1.00;;;;;14.82;61.56;99727.53;6318183;20;2727415;-58
2022/07/11 00:51:53;;;;;;;;;1.75;1.75;;;;;14.74;62.14;99720.00;6302300;20;1794655;-58
2022/07/11 00:54:23;;;;;;;;;1.50;1.50;;;;;14.69;61.79;99717.69;6328144;20;1802532;-58
2022/07/11 00:56:51;;;;;;;;;1.00;1.00;;;;;14.68;63.06;99721.34;6315571;20;2738301;-58
2022/07/11 00:59:19;;;;;;;;;3.00;1.00;;;;;14.96;61.51;99723.75;6285422;20;2730467;-58
2022/07/11 01:01:47;;;;;;;;;1.50;1.50;;;;;15.01;61.32;99714.28;6282519;20;2733644;-59
2022/07/11 01:04:16;;;;;;;;;1.00;1.00;;;;;15.06;60.96;99714.78;6300764;20;1796187;-58
2022/07/11 01:06:43;;;;;;;;;1.00;1.00;;;;;14.90;61.79;99719.66;6319810;20;2610720;-58
2022/07/11 01:09:12;;;;;;;;;2.75;1.00;;;;;14.59;62.82;99715.84;6300236;20;1807700;-58
2022/07/11 01:11:40;;;;;;;;;1.00;1.00;;;;;14.75;62.29;99729.00;6315948;20;2727383;-58
2022/07/11 01:14:09;;;;;;;;;1.50;1.50;;;;;14.68;62.53;99724.06;6297893;20;1803485;-58
2022/07/11 01:16:36;;;;;;;;;2.50;1.50;;;;;14.65;62.64;99726.16;6316232;20;2729514;-58
2022/07/11 01:19:04;;;;;;;;;3.00;2.00;;;;;14.48;63.50;99719.31;6284287;20;2741998;-58
2022/07/11 01:21:38;;;;;;;;;1.00;1.00;;;;;14.48;63.27;99720.19;6298758;20;1797204;-58
2022/07/11 01:24:08;;;;;;;;;3.00;1.00;;;;;14.44;63.97;99723.25;6319817;20;2735698;-58
2022/07/11 01:26:37;;;;;;;;;1.00;1.00;;;;;14.33;64.37;99715.09;6309142;20;1803521;-58
2022/07/11 01:29:13;;;;;;;;;2.00;2.00;;;;;14.41;64.05;99718.06;6319157;20;2741961;-58
2022/07/11 01:31:43;;;;;;;;;3.00;2.00;;;;;14.53;63.01;99714.44;6290540;20;2735784;-59
2022/07/11 01:34:11;;;;;;;;;1.50;1.50;;;;;14.42;63.87;99717.09;6287784;20;2735675;-58
2022/07/11 01:36:42;;;;;;;;;1.75;1.75;;;;;14.26;64.36;99715.56;6305475;20;1798300;-58
2022/07/11 01:39:10;;;;;;;;;2.00;2.00;;;;;14.34;64.51;99711.41;6322137;20;2737904;-58
2022/07/11 01:41:38;;;;;;;;;2.50;2.00;;;;;14.10;65.50;99715.00;6289409;20;2741978;-59
2022/07/11 01:44:06;;;;;;;;;2.00;2.00;;;;;14.09;65.03;99717.84;6290952;20;2739868;-59
2022/07/11 01:46:33;;;;;;;;;2.00;2.00;;;;;13.91;66.25;99714.69;6288735;20;2743990;-58
2022/07/11 01:49:02;;;;;;;;;1.75;1.75;;;;;14.34;64.55;99717.66;6306143;20;1802516;-59
2022/07/11 01:51:31;;;;;;;;;1.00;1.00;;;;;14.34;64.15;99716.81;6336140;20;1803530;-59
2022/07/11 01:53:59;;;;;;;;;2.00;2.00;;;;;13.96;66.33;99720.59;6320688;20;2750667;-59
2022/07/11 01:56:29;;;;;;;;;2.00;2.00;;;;;14.07;65.82;99711.69;6289247;20;2741946;-59
2022/07/11 01:59:01;;;;;;;;;3.50;2.00;;;;;13.92;66.76;99721.78;6287920;20;2741938;-58
2022/07/11 02:01:29;;;;;;;;;2.00;2.00;;;;;13.97;66.24;99720.47;6286898;20;2750259;-59
2022/07/11 02:04:00;;;;;;;;;1.00;1.00;;;;;13.82;67.30;99722.50;6291985;20;2729526;-59
2022/07/11 02:06:28;;;;;;;;;2.00;2.00;;;;;13.73;67.51;99719.59;6289440;20;2737796;-59
2022/07/11 02:08:55;;;;;;;;;2.00;2.00;;;;;13.91;66.16;99714.69;6289410;20;2748192;-59
2022/07/11 02:11:23;;;;;;;;;2.00;2.00;;;;;13.91;66.10;99712.84;6286524;20;2752881;-59
2022/07/11 02:13:51;;;;;;;;;2.00;2.00;;;;;13.78;67.51;99723.69;6284931;20;2746642;-58
2022/07/11 02:16:19;;;;;;;;;2.00;2.00;;;;;13.44;68.91;99713.66;6284220;20;2744015;-58
2022/07/11 02:18:48;;;;;;;;;1.25;1.25;;;;;13.43;69.36;99720.00;6301059;20;1806635;-58
2022/07/11 02:21:15;;;;;;;;;2.50;2.50;;;;;13.55;68.38;99719.13;6316971;20;2754494;-59
2022/07/11 02:23:44;;;;;;;;;2.00;2.00;;;;;13.94;66.81;99719.84;6302546;20;1809728;-59
2022/07/11 02:26:14;;;;;;;;;1.67;1.67;;;;;13.43;69.08;99722.72;6338436;20;1807776;-58
2022/07/11 02:28:42;;;;;;;;;2.00;2.00;;;;;13.78;67.47;99721.00;6318839;20;2756506;-58
2022/07/11 02:31:10;;;;;;;;;2.00;2.00;;;;;13.80;67.17;99729.84;6288632;20;2755515;-58
2022/07/11 02:33:38;;;;;;;;;2.00;2.00;;;;;13.82;67.46;99729.69;6288574;20;2741946;-58
2022/07/11 02:36:07;;;;;;;;;2.00;2.00;;;;;13.66;67.54;99727.28;6284386;20;2750809;-58
2022/07/11 02:38:35;;;;;;;;;2.00;2.00;;;;;13.70;67.77;99734.19;6287191;20;2744040;-59
2022/07/11 02:41:03;;;;;;;;;3.00;3.00;;;;;13.41;68.81;99727.38;6287410;20;2748173;-59
2022/07/11 02:43:31;;;;;;;;;2.00;2.00;;;;;13.19;69.86;99734.25;6287228;20;2742039;-59
2022/07/11 02:45:59;;;;;;;;;1.00;1.00;;;;;13.44;69.15;99736.09;6288990;20;2726399;-58
2022/07/11 02:48:27;;;;;;;;;2.00;2.00;;;;;13.27;69.89;99731.03;6288267;20;2728420;-58
2022/07/11 02:50:55;;;;;;;;;5.00;3.50;;;;;13.02;71.00;99732.78;6289196;20;2748152;-58
2022/07/11 02:53:23;;;;;;;;;3.50;2.00;;;;;13.50;68.54;99732.09;6288499;20;2753367;-58
2022/07/11 02:55:50;;;;;;;;;2.00;2.00;;;;;13.68;68.05;99732.56;6288948;20;2731509;-60
2022/07/11 02:58:18;;;;;;;;;2.00;2.00;;;;;13.83;67.30;99734.16;6287525;20;2744162;-59
2022/07/11 03:00:46;;;;;;;;;3.00;2.00;;;;;13.72;67.71;99726.84;6286404;20;2755603;-58
2022/07/11 03:03:14;;;;;;;;;3.50;3.00;;;;;13.57;68.22;99727.97;6289276;20;2738816;-58
2022/07/11 03:05:42;;;;;;;;;5.00;3.50;;;;;13.74;67.66;99730.28;6284893;20;2749690;-58
2022/07/11 03:08:09;;;;;;;;;3.00;3.00;;;;;13.63;67.84;99732.06;6284347;20;2751472;-58
2022/07/11 03:10:38;;;;;;;;;3.00;3.00;;;;;13.66;67.72;99729.97;6287637;20;2735801;-59
2022/07/11 03:13:06;;;;;;;;;5.00;2.00;;;;;13.65;68.50;99730.09;6288506;20;2731717;-58
2022/07/11 03:15:34;;;;;;;;;3.50;3.50;;;;;13.59;68.29;99731.44;6286460;20;2744008;-58
2022/07/11 03:18:02;;;;;;;;;2.00;2.00;;;;;13.57;68.23;99722.56;6286542;20;2750235;-59
2022/07/11 03:20:29;;;;;;;;;3.50;3.00;;;;;13.57;68.45;99725.28;6287356;20;2740909;-58
2022/07/11 03:22:59;;;;;;;;;10.00;10.00;;;;;13.65;68.14;99730.09;6309492;20;2792032;-58
2022/07/11 03:25:27;;;;;;;;;7.50;6.00;;;;;13.55;68.74;99724.53;6286331;20;2746225;-58
2022/07/11 03:27:54;;;;;;;;;4.00;3.00;;;;;13.58;68.40;99732.38;6285310;20;2731504;-57
2022/07/11 03:30:22;;;;;;;;;5.00;5.00;;;;;13.54;68.56;99733.59;6287951;20;2743037;-58
2022/07/11 03:32:50;;;;;;;;;3.00;3.00;;;;;13.67;68.43;99730.88;6289267;20;2737980;-58
2022/07/11 03:38:05;;;;;;;;;3.00;2.00;;;;;13.63;68.42;99732.91;6320118;20;2744041;-58
2022/07/11 03:40:33;;;;;;;;;2.00;2.00;;;;;13.69;68.36;99736.97;6300257;20;1803982;-58
2022/07/11 03:43:01;;;;;;;;;5.00;4.00;;;;;13.79;67.99;99749.69;6316639;20;2749338;-58
2022/07/11 03:45:29;;;;;;;;;3.00;3.00;;;;;13.73;68.08;99741.19;6288540;20;2750277;-58
2022/07/11 03:47:57;;;;;;;;;3.00;3.00;;;;;13.62;68.64;99744.69;6284157;20;2733576;-59
2022/07/11 03:50:25;;;;;;;;;2.00;2.00;;;;;13.70;68.58;99742.28;6287851;20;3456478;-57
2022/07/11 03:52:52;;;;;;;;;3.00;3.00;;;;;13.70;68.44;99744.97;6284699;20;2746211;-58
2022/07/11 03:55:21;;;;;;;;;1.50;1.50;;;;;13.60;68.96;99739.38;6287607;20;2744023;-59
2022/07/11 03:57:49;;;;;;;;;2.00;2.00;;;;;13.51;69.35;99739.22;6286767;20;2744028;-57
2022/07/11 04:00:17;;;;;;;;;3.00;3.00;;;;;13.61;69.30;99742.94;6288651;20;2437769;-58
2022/07/11 04:02:44;;;;;;;;;2.00;2.00;;;;;13.77;69.00;99746.25;6284956;20;2754416;-58
2022/07/11 04:05:12;;;;;;;;;3.00;3.00;;;;;13.76;68.59;99749.91;6286950;20;2734768;-58
2022/07/11 04:07:41;;;;;;;;;3.00;3.00;;;;;13.89;68.16;99760.66;6283896;20;2738892;-58
2022/07/11 04:10:10;;;;;;;;;2.00;2.00;;;;;13.78;68.80;99752.50;6283552;20;2740035;-58
2022/07/11 04:12:38;;;;;;;;;1.00;1.00;;;;;13.97;68.21;99752.00;6285600;20;2735759;-59
2022/07/11 04:15:07;;;;;;;;;3.00;2.00;;;;;13.72;69.55;99752.97;6285768;20;2750247;-58
2022/07/11 04:17:34;;;;;;;;;3.50;2.50;;;;;14.07;68.42;99752.19;6283011;20;2729465;-58
2022/07/11 04:20:04;;;;;;;;;2.50;2.00;;;;;14.16;67.75;99763.13;6286204;20;2737932;-58
2022/07/11 04:22:31;;;;;;;;;3.00;3.00;;;;;14.12;67.76;99760.81;6283785;20;2735758;-58
2022/07/11 04:24:59;;;;;;;;;4.00;3.00;;;;;14.13;67.95;99765.22;6287831;20;2735776;-57
2022/07/11 04:27:29;;;;;;;;;2.00;2.00;;;;;14.23;67.97;99768.94;6298768;20;1803507;-58
2022/07/11 04:29:59;;;;;;;;;3.00;1.00;;;;;15.15;63.96;99762.72;6318540;20;2739881;-58
2022/07/11 04:32:26;;;;;;;;;3.00;2.00;;;;;14.48;66.37;99773.34;6287365;20;2729442;-59
2022/07/11 04:34:54;;;;;;;;;3.00;3.00;;;;;14.53;66.52;99776.56;6287590;20;2739919;-57
2022/07/11 04:37:23;;;;;;;;;0.50;0.00;;;;;14.71;66.21;99774.31;6297706;20;1804609;-57
2022/07/11 04:39:50;;;;;;;;;3.00;3.00;;;;;14.46;67.54;99776.16;6316842;20;2739851;-58
2022/07/11 04:42:18;;;;;;;;;2.00;2.00;;;;;14.92;66.07;99777.19;6284672;20;2744065;-61
2022/07/11 04:44:46;;;;;;;;;3.00;3.00;;;;;15.08;66.25;99776.84;6286149;20;2744091;-60
2022/07/11 04:47:13;;;;;;;;;2.50;2.50;;;;;15.20;65.98;99791.25;6284170;20;2737782;-60
2022/07/11 04:49:46;;;;;;;;;3.00;3.00;;;;;15.53;64.42;99782.25;6286747;20;2744064;-60
2022/07/11 04:52:14;;;;;;;;;6.50;3.00;;;;;15.65;64.09;99783.13;6281991;20;2752328;-60
2022/07/11 04:54:42;;;;;;;;;5.00;3.00;;;;;15.60;64.54;99780.78;6288729;20;2740897;-60
2022/07/11 04:57:11;;;;;;;;;3.00;3.00;;;;;15.97;63.05;99789.50;6283657;20;2738846;-60
2022/07/11 04:59:38;;;;;;;;;2.50;2.50;;;;;16.21;62.26;99785.75;6285596;20;2733629;-60
2022/07/11 05:02:06;;;;;;;;;3.00;3.00;;;;;16.20;61.55;99787.59;6287017;20;2744069;-60
2022/07/11 05:04:34;;;;;;;;;4.00;2.50;;;;;16.33;61.63;99787.44;6284818;20;2738906;-60
2022/07/11 05:07:02;;;;;;;;;2.00;2.00;;;;;16.39;60.90;99789.63;6284109;20;2742019;-60
2022/07/11 05:09:30;;;;;;;;;2.00;2.00;;;;;16.28;60.80;99795.09;6284666;20;2744030;-60
2022/07/11 05:11:58;;;;;;;;;5.00;2.00;;;;;16.43;60.77;99793.81;6284887;20;2755515;-60
2022/07/11 05:14:25;;;;;;;;;5.00;3.00;;;;;16.71;59.97;99799.59;6284856;20;2746077;-60
2022/07/11 05:16:53;;;;;;;;;3.00;3.00;;;;;16.96;58.39;99792.13;6283101;20;2741946;-60
2022/07/11 05:19:21;;;;;;;;;1.00;1.00;;;;;17.10;58.61;99795.31;6282907;20;2737763;-60
2022/07/11 05:21:48;;;;;;;;;3.00;3.00;;;;;17.18;57.86;99789.22;6284855;20;2741944;-60
2022/07/11 05:24:18;;;;;;;;;2.50;2.50;;;;;17.66;56.95;99787.72;6284368;20;2737775;-60
2022/07/11 05:26:46;;;;;;;;;1.00;1.00;;;;;17.81;56.46;99801.84;6284837;20;2726338;-60
2022/07/11 05:29:15;;;;;;;;;2.50;2.00;;;;;18.16;55.42;99796.75;6284922;20;2744086;-60
2022/07/11 05:31:49;;;;;;;;;4.00;3.00;;;;;17.98;55.69;99799.31;6286696;20;2750319;-60
2022/07/11 05:34:18;;;;;;;;;2.00;2.00;;;;;18.19;54.51;99806.50;6287635;20;2739212;-60
2022/07/11 05:36:47;;;;;;;;;3.00;3.00;;;;;18.39;54.17;99807.38;6283429;20;2741918;-60
2022/07/11 05:39:15;;;;;;;;;4.00;2.00;;;;;18.42;53.70;99813.41;6282243;20;2752376;-60
2022/07/11 05:41:43;;;;;;;;;3.00;3.00;;;;;18.36;53.75;99813.13;6303725;20;1793036;-60
2022/07/11 05:44:11;;;;;;;;;3.00;3.00;;;;;18.09;54.27;99809.22;6315872;20;2733612;-60
2022/07/11 05:46:39;;;;;;;;;15.00;15.00;;;;;18.64;53.23;99812.28;6279338;20;2820069;-60
2022/07/11 05:49:07;;;;;;;;;1.00;1.00;;;;;18.62;52.67;99813.44;6285090;20;2728479;-60
2022/07/11 05:51:36;;;;;;;;;3.00;3.00;;;;;18.54;52.36;99810.56;6284396;20;2738861;-60
2022/07/11 05:54:04;;;;;;;;;2.00;2.00;;;;;18.45;52.80;99816.84;6286541;20;2728399;-61
2022/07/11 05:56:32;;;;;;;;;6.00;3.50;;;;;18.96;51.94;99821.19;6284065;20;2752338;-60
2022/07/11 05:58:59;;;;;;;;;3.50;3.50;;;;;19.21;50.79;99825.13;6284009;20;2756532;-60
2022/07/11 06:01:31;;;;;;;;;72.33;64.67;;;;;19.45;50.22;99822.75;6280671;20;3642957;-60
2022/07/11 06:04:05;;;;;;;;;11.40;8.20;;;;;19.74;49.45;99830.00;6305678;20;2763861;-60
2022/07/11 06:06:33;;;;;;;;;3.00;3.00;;;;;19.14;49.98;99824.00;6281123;20;2752320;-60
2022/07/11 06:09:01;;;;;;;;;3.00;3.00;;;;;19.55;49.86;99832.78;6287862;20;2744064;-60
2022/07/11 06:11:31;;;;;;;;;0.00;0.00;;;;;19.68;49.10;99827.88;6306510;20;1778489;-60
2022/07/11 06:13:59;;;;;;;;;12.33;10.33;;;;;19.77;48.52;99829.69;6317073;20;3510668;-60
2022/07/11 06:16:28;;;;;;;;;84.00;71.50;;;;;19.71;48.95;99839.34;6312963;20;1936979;-61
2022/07/11 06:18:57;;;;;;;;;31.67;19.00;;;;;19.90;48.71;99832.94;6286714;20;3588773;-61
2022/07/11 06:21:29;;;;;;;;;197.71;161.43;;;;;20.19;47.92;99829.19;6296783;20;2545207;-61
2022/07/11 06:23:59;;;;;;;;;78.33;58.33;;;;;20.31;47.77;99827.97;6285200;20;3668990;-61
2022/07/11 06:26:28;;;;;;;;;52.25;40.75;;;;;20.15;47.75;99830.53;6284321;20;3615987;-61
2022/07/11 06:28:57;;;;;;;;;54.00;44.67;;;;;20.43;47.13;99844.97;6317623;20;3609703;-60
2022/07/11 06:31:26;;;;;;;;;2.00;1.00;;;;;20.76;45.74;99839.91;6290168;20;2733602;-60
2022/07/11 06:33:57;;;;;;;;;2.00;2.00;;;;;20.99;45.26;99843.88;6319375;20;2734632;-61
2022/07/11 06:36:26;;;;;;;;;12.00;9.00;;;;;21.48;43.91;99840.66;6316281;20;3483677;-61
2022/07/11 06:38:55;;;;;;;;;39.00;35.00;;;;;21.71;43.31;99846.44;6316058;20;3590842;-61
2022/07/11 06:41:24;;;;;;;;;2.67;2.67;;;;;22.27;41.75;99833.19;6291980;20;2732546;-61
2022/07/11 06:43:54;;;;;;;;;6.40;4.00;;;;;22.25;41.70;99837.97;6341067;20;2748221;-61
2022/07/11 06:46:22;;;;;;;;;0.00;0.00;;;;;22.20;40.81;99843.97;6292430;20;2705501;-61
2022/07/11 06:48:51;;;;;;;;;14.33;11.67;;;;;22.52;40.05;99845.94;6315743;20;3526300;-61
2022/07/11 06:51:21;;;;;;;;;2.33;2.33;;;;;22.92;38.20;99848.91;6320284;20;2733574;-61
2022/07/11 06:53:52;;;;;;;;;3.67;2.00;;;;;21.97;39.57;99845.56;6320722;20;2746139;-61
2022/07/11 06:56:20;;;;;;;;;5.00;2.00;;;;;22.61;38.25;99843.22;6317402;20;2750436;-61
2022/07/11 06:58:49;;;;;;;;;3.40;3.00;;;;;23.21;38.09;99845.69;6339040;20;2743022;-61
2022/07/11 07:01:19;;;;;;;;;2.00;2.00;;;;;23.05;37.20;99846.53;6339865;20;2741987;-61
2022/07/11 07:03:47;;;;;;;;;2.00;2.00;;;;;23.50;36.73;99841.53;6320069;20;2752315;-62
2022/07/11 07:06:18;;;;;;;;;2.00;2.00;;;;;23.19;36.98;99843.09;6341547;20;2699216;-62
2022/07/11 07:08:47;;;;;;;;;3.00;2.00;;;;;23.79;36.36;99847.31;6342812;20;2032595;-62
2022/07/11 07:11:15;;;;;;;;;1.67;1.00;;;;;23.33;35.14;99852.53;6291761;20;2739850;-62
2022/07/11 07:13:49;;;;;;;;;1.25;1.25;;;;;23.36;35.22;99833.00;6348652;20;2730453;-61
2022/07/11 07:16:18;;;;;;;;;2.00;2.00;;;;;24.04;34.81;99837.13;6288368;20;2737779;-60
2022/07/11 07:18:50;;;;;;;;;2.20;2.00;;;;;23.51;35.52;99840.50;6341670;20;2750263;-61
2022/07/11 07:21:20;;;;;;;;;6.40;5.80;;;;;24.26;35.34;99848.34;6310634;20;2747232;-61
2022/07/11 07:23:50;;;;;;;;;4.60;2.00;;;;;23.77;34.84;99845.78;6309034;20;2756552;-60
2022/07/11 07:26:19;;;;;;;;;1.00;1.00;;;;;24.14;34.06;99845.13;6310013;20;2735793;-61
2022/07/11 07:28:49;;;;;;;;;3.80;3.20;;;;;24.24;34.46;99842.16;6341275;20;2736705;-59
2022/07/11 07:31:19;;;;;;;;;5.20;5.20;;;;;24.62;34.39;99851.44;6342816;20;2741930;-61
2022/07/11 07:33:49;;;;;;;;;1.40;1.40;;;;;24.70;34.45;99854.13;6307581;20;2728363;-61
2022/07/11 07:36:19;;;;;;;;;3.20;2.40;;;;;24.62;34.56;99854.19;6342214;20;2725264;-61
2022/07/11 07:38:49;;;;;;;;;1.00;1.00;;;;;24.67;34.67;99853.59;6341761;20;2021102;-62
2022/07/11 07:41:18;;;;;;;;;2.80;2.80;;;;;24.34;34.81;99844.69;6340627;20;2727341;-61
2022/07/11 07:43:48;;;;;;;;;6.33;5.00;;;;;24.70;34.40;99842.28;6315576;20;2750332;-61
2022/07/11 07:46:17;;;;;;;;;3.00;3.00;;;;;24.36;34.61;99845.38;6318853;20;2737783;-62
2022/07/11 07:48:48;;;;;;;;;2.00;2.00;;;;;25.09;33.35;99842.16;6339523;20;2744019;-60
2022/07/11 07:51:17;;;;;;;;;1.00;1.00;;;;;24.93;34.23;99848.59;6342040;20;2721082;-61
2022/07/11 07:53:48;;;;;;;;;4.00;4.00;;;;;24.11;35.17;99834.50;6342152;20;2727444;-61
2022/07/11 07:56:25;;;;;;;;;4.00;2.00;;;;;24.82;33.98;99831.72;6338996;20;2739937;-61
2022/07/11 07:58:55;;;;;;;;;4.00;4.00;;;;;25.60;33.63;99831.38;6341205;20;2730455;-61
2022/07/11 08:01:40;;;;;;;;;2.60;2.60;;;;;25.06;33.45;99825.16;6341741;20;2737784;-61
2022/07/11 08:04:10;;;;;;;;;2.60;2.60;;;;;25.56;33.73;99837.44;6344008;20;2728437;-61
2022/07/11 08:06:40;;;;;;;;;4.80;3.20;;;;;25.33;33.37;99816.38;6340133;20;2752447;-62
2022/07/11 08:09:10;;;;;;;;;4.20;3.00;;;;;26.01;32.61;99824.56;6309239;20;2746547;-62
2022/07/11 08:11:40;;;;;;;;;3.00;1.80;;;;;25.99;31.83;99824.78;6310509;20;2743048;-61
2022/07/11 08:14:09;;;;;;;;;1.40;1.40;;;;;24.71;33.76;99806.38;6306855;20;2728451;-61
2022/07/11 08:16:40;;;;;;;;;2.00;2.00;;;;;25.06;34.23;99815.03;6338759;20;2731566;-61
2022/07/11 08:19:11;;;;;;;;;2.00;2.00;;;;;25.49;32.77;99812.59;6339488;20;2752393;-61
2022/07/11 08:21:41;;;;;;;;;1.00;1.00;;;;;25.17;33.60;99817.38;6310861;20;2739871;-61
2022/07/11 08:24:11;;;;;;;;;1.00;1.00;;;;;25.24;33.15;99814.72;6340461;20;2724269;-61
2022/07/11 08:26:40;;;;;;;;;2.80;2.00;;;;;25.66;33.90;99817.91;6337680;20;2744036;-61
2022/07/11 08:29:10;;;;;;;;;1.40;1.00;;;;;24.74;32.85;99802.41;6310196;20;2733644;-62
2022/07/11 08:31:39;;;;;;;;;1.00;1.00;;;;;25.69;32.00;99814.78;6342436;20;2735725;-61
2022/07/11 08:34:09;;;;;;;;;1.80;1.00;;;;;26.50;30.63;99812.91;6339162;20;2733711;-61
2022/07/11 08:36:44;;;;;;;;;5.60;2.00;;;;;25.66;32.17;99810.50;6337981;20;2729516;-61
2022/07/11 08:39:14;;;;;;;;;3.00;3.00;;;;;23.86;35.48;99806.34;6340146;20;2741959;-61
2022/07/11 08:41:45;;;;;;;;;2.00;2.00;;;;;23.80;35.05;99807.03;6338564;20;2744074;-61
2022/07/11 08:44:16;;;;;;;;;3.00;1.40;;;;;23.75;35.56;99804.84;6339948;20;2739861;-61
2022/07/11 08:46:46;;;;;;;;;2.80;2.80;;;;;23.44;35.58;99805.56;6303992;20;2732568;-61
2022/07/11 08:49:15;;;;;;;;;18.33;16.33;;;;;23.30;36.34;99800.81;6315459;20;3555475;-61
2022/07/11 08:51:46;;;;;;;;;7.20;4.60;;;;;24.92;34.72;99808.47;6339486;20;2748163;-61
2022/07/11 08:54:15;;;;;;;;;2.00;2.00;;;;;25.21;34.26;99817.00;6285179;20;2734641;-61
2022/07/11 08:56:52;;;;;;;;;1.00;1.00;;;;;23.30;36.50;99803.56;6316320;20;2730518;-61
2022/07/11 08:59:24;;;;;;;;;6.33;4.33;;;;;22.82;37.48;99807.97;6317188;20;2747163;-60
2022/07/11 09:01:58;;;;;;;;;13.00;11.00;;;;;23.02;37.52;99804.97;6310980;20;2786867;-60
2022/07/11 09:04:30;;;;;;;;;3.60;3.60;;;;;22.66;37.37;99805.25;6336023;20;2745142;-61
2022/07/11 09:07:01;;;;;;;;;2.00;2.00;;;;;22.32;37.29;99806.22;6314945;20;2746077;-60
2022/07/11 09:09:31;;;;;;;;;1.40;1.20;;;;;22.38;36.81;99808.28;6338005;20;2728411;-61
2022/07/11 09:11:59;;;;;;;;;3.00;1.67;;;;;22.58;37.50;99806.94;6317947;20;2741908;-60
2022/07/11 09:14:32;;;;;;;;;1.14;1.14;;;;;22.43;37.84;99803.16;6357712;20;3446118;-60
2022/07/11 09:17:05;;;;;;;;;1.00;1.00;;;;;22.86;37.68;99801.16;6317248;20;2727449;-60
2022/07/11 09:19:39;;;;;;;;;3.00;1.33;;;;;22.90;37.18;99812.59;6316435;20;2756664;-61
2022/07/11 09:25:31;;;;;;;;;4.60;3.00;;;;;22.79;37.28;99797.38;6337426;20;2752359;-60
2022/07/11 09:28:04;;;;;;;;;9.67;6.67;;;;;22.70;37.12;99799.28;6280275;20;3474180;-60
2022/07/11 09:30:39;;;;;;;;;3.00;2.67;;;;;23.28;36.20;99808.34;6314724;20;2730516;-60
2022/07/11 09:33:12;;;;;;;;;2.80;2.00;;;;;24.13;35.22;99801.41;6337730;20;2743996;-60
2022/07/11 09:35:46;;;;;;;;;1.57;1.57;;;;;24.98;33.47;99795.88;6354915;20;3453373;-60
2022/07/11 09:38:17;;;;;;;;;2.00;2.00;;;;;25.56;31.57;99794.28;6339939;20;2736735;-61
2022/07/11 09:40:49;;;;;;;;;1.60;0.60;;;;;23.78;31.45;99790.78;6338429;20;2717056;-61
2022/07/11 09:43:26;;;;;;;;;1.40;1.40;;;;;24.65;31.41;99801.63;6338364;20;2730466;-61
2022/07/11 09:46:06;;;;;;;;;3.00;3.00;;;;;24.35;30.93;99788.75;6318447;20;2752349;-61
2022/07/11 09:48:36;;;;;;;;;2.20;1.20;;;;;25.22;30.69;99799.47;6343196;20;2728388;-61
2022/07/11 09:51:05;;;;;;;;;0.80;0.80;;;;;25.22;30.27;99789.31;6345088;20;2727330;-61
2022/07/11 09:53:35;;;;;;;;;2.60;1.00;;;;;25.35;30.06;99792.28;6344682;20;2735778;-61
2022/07/11 09:56:07;;;;;;;;;1.00;0.60;;;;;25.31;28.73;99792.88;6343184;20;2733606;-61
2022/07/11 09:58:36;;;;;;;;;1.00;1.00;;;;;25.43;27.79;99783.09;6345170;20;2725383;-63
2022/07/11 10:01:05;;;;;;;;;8.00;8.00;;;;;25.95;27.98;99793.16;6323483;20;2735664;-62
2022/07/11 10:03:35;;;;;;;;;1.40;0.80;;;;;25.25;28.76;99796.34;6345704;20;2730457;-62
2022/07/11 10:06:25;;;;;;;;;4.00;1.00;;;;;25.60;26.57;99790.13;6343395;20;2735750;-62
2022/07/11 10:08:55;;;;;;;;;0.40;0.00;;;;;25.22;26.96;99783.81;6345533;20;2727389;-63
2022/07/11 10:11:25;;;;;;;;;3.00;3.00;;;;;25.16;27.70;99793.66;6343226;20;2748208;-62
2022/07/11 10:13:56;;;;;;;;;1.00;1.00;;;;;25.12;27.38;99797.81;6313914;20;2720413;-61
2022/07/11 10:16:56;;;;;;;;;1.00;1.00;;;;;24.88;27.73;99795.25;6340295;20;2723282;-62
2022/07/11 10:19:50;;;;;;;;;3.20;1.00;;;;;25.96;27.91;99794.03;6341031;20;2732559;-61
2022/07/11 10:22:36;;;;;;;;;1.00;1.00;;;;;25.72;28.61;99786.91;6340580;20;2728423;-63
2022/07/11 10:25:22;;;;;;;;;4.67;4.67;;;;;26.66;26.85;99795.31;6324489;20;2752555;-63
2022/07/11 10:28:23;;;;;;;;;0.20;0.20;;;;;26.58;25.52;99787.16;6342722;20;2731556;-62
2022/07/11 10:30:57;;;;;;;;;1.00;1.00;;;;;25.73;27.37;99785.88;6342507;20;2729470;-63
2022/07/11 10:33:29;;;;;;;;;2.00;0.00;;;;;26.28;26.77;99781.75;6344326;20;2729436;-60
2022/07/11 10:36:00;;;;;;;;;1.80;1.00;;;;;25.78;27.67;99780.66;6343476;20;2725390;-63
2022/07/11 10:38:30;;;;;;;;;1.00;1.00;;;;;24.82;28.67;99769.41;6342545;20;2727322;-62
2022/07/11 10:40:59;;;;;;;;;1.25;1.00;;;;;25.58;29.27;99770.22;6347764;20;2728411;-62
2022/07/11 10:43:39;;;;;;;;;1.00;1.00;;;;;26.30;28.02;99768.59;6311776;20;2727364;-62
2022/07/11 10:46:19;;;;;;;;;1.20;1.20;;;;;26.08;28.83;99758.63;6340269;20;2729441;-63
2022/07/11 10:49:09;;;;;;;;;1.00;1.00;;;;;24.74;29.55;99758.47;6343352;20;2731523;-63
2022/07/11 10:51:41;;;;;;;;;2.60;1.20;;;;;24.59;30.00;99769.41;6341472;20;2724246;-61
2022/07/11 10:54:51;;;;;;;;;3.40;3.40;;;;;24.35;29.96;99761.31;6342319;20;2751359;-60
2022/07/11 10:57:36;;;;;;;;;3.00;1.25;;;;;24.44;30.53;99765.72;6315686;20;2741950;-62
2022/07/11 11:00:14;;;;;;;;;2.33;1.00;;;;;24.44;30.11;99752.00;6336377;20;3425219;-62
2022/07/11 11:03:08;;;;;;;;;2.00;0.60;;;;;24.23;30.45;99750.78;6345891;20;2720048;-60
2022/07/11 11:05:52;;;;;;;;;0.60;0.60;;;;;23.88;30.74;99760.38;6346413;20;2729421;-59
2022/07/11 11:08:38;;;;;;;;;1.00;1.00;;;;;23.87;30.69;99754.03;6346701;20;2725710;-59
2022/07/11 11:11:25;;;;;;;;;1.86;0.29;;;;;24.24;29.46;99754.34;6360727;20;3443057;-59
2022/07/11 11:14:22;;;;;;;;;3.00;1.00;;;;;24.20;29.17;99764.00;6323629;20;2732555;-59
2022/07/11 11:16:52;;;;;;;;;2.00;1.00;;;;;23.85;29.71;99750.63;6344474;20;2721220;-59
2022/07/11 11:19:50;;;;;;;;;1.00;1.00;;;;;23.93;30.49;99748.88;6345720;20;2730471;-61
2022/07/11 11:22:23;;;;;;;;;3.40;1.20;;;;;24.02;31.43;99754.16;6343038;20;2735705;-61
2022/07/11 11:24:56;;;;;;;;;0.20;0.20;;;;;24.31;30.75;99747.97;6345470;20;2731555;-59
2022/07/11 11:28:08;;;;;;;;;2.00;1.43;;;;;23.88;30.36;99750.28;6365079;20;3464790;-65
2022/07/11 11:30:37;;;;;;;;;1.00;1.00;;;;;23.94;31.30;99750.59;6345382;20;2733596;-61
2022/07/11 11:33:17;;;;;;;;;3.60;2.00;;;;;24.39;29.65;99754.44;6342484;20;2730537;-59
2022/07/11 11:36:00;;;;;;;;;3.00;1.00;;;;;24.44;30.11;99754.75;6345473;20;1901343;-62
2022/07/11 11:38:32;;;;;;;;;5.00;1.67;;;;;24.72;30.02;99758.69;6290912;20;2741898;-59
2022/07/11 11:41:02;;;;;;;;;5.00;2.00;;;;;24.12;30.29;99758.53;6342227;20;2756535;-59